Time;durP1;ratioP1;P1;durP2;ratioP2;P2;SDS_P1;SDS_P2;PMS_P1;PMS_P2;Temp;Humidity;BMP_temperature;BMP_pressure;BME280_temperature;BME280_humidity;BME280_pressure;Samples;Min_cycle;Max_cycle;Signal;HPM_P1;HPM_P2
2022/11/09 00:02:07;;;;;;;8.32;5.05;;;11.40;99.90;;;;;;6143663;29;20275;-67
2022/11/09 00:05:14;;;;;;;7.82;4.75;;;11.40;99.90;;;;;;6143240;29;20603;-67
2022/11/09 00:08:19;;;;;;;12.65;4.97;;;11.40;99.90;;;;;;6142546;29;20622;-67
2022/11/09 00:11:26;;;;;;;7.85;5.10;;;11.40;99.90;;;;;;6152384;29;20271;-67
2022/11/09 00:14:31;;;;;;;11.43;4.82;;;11.40;99.90;;;;;;6166666;29;20298;-67
2022/11/09 00:17:36;;;;;;;10.20;5.03;;;11.40;99.90;;;;;;6167152;29;20266;-67
2022/11/09 00:20:43;;;;;;;12.85;5.22;;;11.30;99.90;;;;;;6166493;29;20306;-66
2022/11/09 00:23:53;;;;;;;11.00;6.15;;;11.30;99.90;;;;;;6166287;29;20294;-67
2022/11/09 00:27:00;;;;;;;9.05;4.97;;;11.30;99.90;;;;;;6166792;29;20270;-66
2022/11/09 00:30:09;;;;;;;9.68;5.10;;;11.40;99.90;;;;;;6166157;29;20306;-66
2022/11/09 00:33:18;;;;;;;8.13;4.90;;;11.40;99.90;;;;;;6166315;29;20266;-67
2022/11/09 00:36:26;;;;;;;10.40;5.53;;;11.40;99.90;;;;;;6166665;29;20266;-67
2022/11/09 00:39:31;;;;;;;11.02;5.25;;;11.40;99.90;;;;;;6166256;29;20302;-67
2022/11/09 00:42:37;;;;;;;9.05;5.00;;;11.40;99.90;;;;;;6149866;29;20275;-67
2022/11/09 00:45:42;;;;;;;8.38;5.25;;;11.30;99.90;;;;;;6148918;29;20306;-67
2022/11/09 00:48:48;;;;;;;9.65;4.82;;;11.30;99.90;;;;;;6165974;29;20286;-67
2022/11/09 00:51:53;;;;;;;8.52;4.57;;;11.40;99.90;;;;;;6149186;29;20474;-67
2022/11/09 00:54:58;;;;;;;6.38;4.78;;;11.40;99.90;;;;;;6149071;29;20311;-67
2022/11/09 00:58:05;;;;;;;8.75;5.50;;;11.40;99.90;;;;;;6148853;29;20267;-67
2022/11/09 01:01:15;;;;;;;8.95;4.75;;;11.40;99.90;;;;;;6149258;29;20280;-67
2022/11/09 01:04:20;;;;;;;7.18;5.28;;;11.30;99.90;;;;;;6148565;29;20298;-67
2022/11/09 01:07:26;;;;;;;10.88;5.30;;;11.40;99.90;;;;;;6166202;29;20298;-67
2022/11/09 01:10:32;;;;;;;15.23;5.82;;;11.30;99.90;;;;;;6146648;29;20310;-67
2022/11/09 01:13:39;;;;;;;7.30;5.03;;;11.30;99.90;;;;;;6141746;29;20291;-67
2022/11/09 01:16:45;;;;;;;12.82;5.28;;;11.40;99.90;;;;;;6125136;29;20279;-66
2022/11/09 01:19:50;;;;;;;7.68;4.57;;;11.40;99.90;;;;;;6141514;29;20299;-66
2022/11/09 01:22:55;;;;;;;7.72;5.32;;;11.40;99.90;;;;;;6124980;29;20276;-67
2022/11/09 01:26:00;;;;;;;11.25;5.45;;;11.40;99.90;;;;;;6141305;29;20295;-67
2022/11/09 01:29:06;;;;;;;5.45;4.97;;;11.40;99.90;;;;;;6140969;29;20307;-67
2022/11/09 01:32:18;;;;;;;5.75;4.88;;;11.40;99.90;;;;;;6125924;29;20291;-67
2022/11/09 01:35:34;;;;;;;7.70;5.10;;;11.30;99.90;;;;;;6140491;29;20295;-67
2022/11/09 01:38:59;;;;;;;7.05;5.25;;;11.30;99.90;;;;;;6140564;29;20299;-67
2022/11/09 01:42:06;;;;;;;14.57;5.30;;;11.40;99.90;;;;;;6141291;29;20271;-67
2022/11/09 01:45:28;;;;;;;11.30;6.28;;;11.40;99.90;;;;;;6140754;29;20299;-67
2022/11/09 01:48:39;;;;;;;8.82;5.03;;;11.30;99.90;;;;;;6140747;29;20295;-67
2022/11/09 01:51:50;;;;;;;10.45;5.53;;;11.40;99.90;;;;;;6140963;29;20462;-69
2022/11/09 01:55:07;;;;;;;11.02;5.75;;;11.30;99.90;;;;;;6141219;29;20295;-67
2022/11/09 01:58:17;;;;;;;10.75;5.47;;;11.30;99.90;;;;;;6123677;29;20279;-66
2022/11/09 02:01:26;;;;;;;8.77;5.45;;;11.40;99.90;;;;;;6124671;29;20582;-67
2022/11/09 02:04:36;;;;;;;7.45;5.00;;;11.40;99.90;;;;;;6123566;29;20290;-66
2022/11/09 02:07:43;;;;;;;10.80;5.47;;;11.40;99.90;;;;;;6140359;29;20338;-67
2022/11/09 02:11:10;;;;;;;10.48;5.63;;;11.40;99.90;;;;;;6131882;29;20286;-67
2022/11/09 02:14:33;;;;;;;8.65;5.78;;;11.50;99.90;;;;;;6164449;29;20303;-67
2022/11/09 02:17:42;;;;;;;11.27;5.70;;;11.50;99.90;;;;;;6147342;29;20270;-67
2022/11/09 02:20:50;;;;;;;12.93;5.75;;;11.40;99.90;;;;;;6147078;29;20310;-67
2022/11/09 02:23:59;;;;;;;8.75;6.85;;;11.40;99.90;;;;;;6146771;29;20298;-67
2022/11/09 02:27:06;;;;;;;12.55;5.88;;;11.40;99.90;;;;;;6147237;29;20270;-67
2022/11/09 02:30:15;;;;;;;11.52;6.18;;;11.40;99.90;;;;;;6147458;29;20307;-67
2022/11/09 02:33:53;;;;;;;12.43;6.25;;;11.40;99.90;;;;;;6149365;29;20295;-66
2022/11/09 02:37:09;;;;;;;10.73;6.07;;;11.40;99.90;;;;;;6148111;29;20454;-66
2022/11/09 02:40:20;;;;;;;10.50;6.15;;;11.30;99.90;;;;;;6146271;29;20302;-66
2022/11/09 02:43:26;;;;;;;10.95;6.80;;;11.30;99.90;;;;;;6146077;29;20294;-67
2022/11/09 02:46:34;;;;;;;10.63;6.07;;;11.30;99.90;;;;;;6147234;29;20275;-67
2022/11/09 02:49:40;;;;;;;14.40;7.20;;;11.30;99.90;;;;;;6146679;29;20298;-67
2022/11/09 02:52:46;;;;;;;10.23;6.05;;;11.20;99.90;;;;;;6164179;29;20566;-67
2022/11/09 02:55:52;;;;;;;14.07;6.60;;;11.30;99.90;;;;;;6146615;29;20484;-67
2022/11/09 02:58:58;;;;;;;13.38;6.50;;;11.30;99.90;;;;;;6146036;29;20298;-67
2022/11/09 03:02:03;;;;;;;12.32;6.20;;;11.40;99.90;;;;;;6146601;29;20302;-67
2022/11/09 03:05:11;;;;;;;7.32;6.10;;;11.30;99.90;;;;;;6146677;29;20486;-67
2022/11/09 03:08:36;;;;;;;9.73;6.80;;;11.30;99.90;;;;;;6148181;29;20303;-66
2022/11/09 03:11:55;;;;;;;9.88;6.03;;;11.30;99.90;;;;;;6130930;29;20301;-67
2022/11/09 03:15:20;;;;;;;14.93;6.18;;;11.30;99.90;;;;;;6119562;29;20300;-66
2022/11/09 03:18:47;;;;;;;17.30;5.97;;;11.20;99.90;;;;;;6106917;29;20288;-66
2022/11/09 03:22:24;;;;;;;12.65;6.18;;;11.30;99.90;;;;;;6120064;29;20277;-66
2022/11/09 03:25:30;;;;;;;9.50;6.00;;;11.20;99.90;;;;;;6120364;29;20294;-67
2022/11/09 03:28:36;;;;;;;12.50;6.10;;;11.20;99.90;;;;;;6120135;29;20445;-67
2022/11/09 03:31:41;;;;;;;11.73;6.40;;;11.30;99.90;;;;;;6120442;29;20292;-66
2022/11/09 03:34:48;;;;;;;11.52;6.45;;;11.20;99.90;;;;;;6103500;29;20299;-66
2022/11/09 03:37:53;;;;;;;11.90;6.50;;;11.20;99.90;;;;;;6119378;29;20579;-66
2022/11/09 03:41:01;;;;;;;12.77;6.40;;;11.20;99.90;;;;;;6103560;29;20299;-67
2022/11/09 03:44:09;;;;;;;11.95;5.85;;;11.10;99.90;;;;;;6103512;29;20291;-67
2022/11/09 03:47:13;;;;;;;11.35;6.10;;;11.20;99.90;;;;;;6120427;29;20272;-66
2022/11/09 03:50:19;;;;;;;8.85;6.03;;;11.10;99.90;;;;;;6103104;29;20489;-67
2022/11/09 03:53:23;;;;;;;8.18;5.82;;;11.20;99.90;;;;;;6119543;29;20299;-67
2022/11/09 03:56:29;;;;;;;9.23;6.03;;;11.10;99.90;;;;;;6120650;29;20275;-67
2022/11/09 03:59:35;;;;;;;8.75;5.43;;;11.20;99.90;;;;;;6119584;29;20475;-67
2022/11/09 04:02:40;;;;;;;11.80;5.55;;;11.30;99.90;;;;;;6133408;29;20311;-67
2022/11/09 04:05:44;;;;;;;9.82;5.80;;;11.10;99.90;;;;;;6160143;29;20267;-67
2022/11/09 04:08:49;;;;;;;10.55;5.60;;;11.10;99.90;;;;;;6142886;29;20493;-67
2022/11/09 04:11:57;;;;;;;9.10;5.60;;;11.20;99.90;;;;;;6143517;29;20291;-67
2022/11/09 04:15:02;;;;;;;9.05;5.68;;;11.20;99.90;;;;;;6135847;29;20455;-67
2022/11/09 04:18:13;;;;;;;12.93;5.70;;;11.20;99.90;;;;;;6143284;29;20295;-67
2022/11/09 04:21:18;;;;;;;8.38;5.68;;;11.20;99.90;;;;;;6137356;29;20275;-67
2022/11/09 04:24:27;;;;;;;12.95;5.55;;;11.20;99.90;;;;;;6142999;29;20504;-67
2022/11/09 04:27:33;;;;;;;8.32;5.38;;;11.10;99.90;;;;;;6142827;29;20299;-67
2022/11/09 04:30:38;;;;;;;10.10;5.13;;;11.20;99.90;;;;;;6143016;29;20595;-67
2022/11/09 04:33:43;;;;;;;10.55;5.38;;;11.20;99.90;;;;;;6142764;29;20491;-67
2022/11/09 04:36:49;;;;;;;8.45;5.10;;;11.10;99.90;;;;;;6143040;29;20548;-67
2022/11/09 04:39:53;;;;;;;12.60;5.63;;;11.20;99.90;;;;;;6142731;29;20431;-67
2022/11/09 04:43:01;;;;;;;8.02;5.45;;;11.10;99.90;;;;;;6142567;29;20587;-67
2022/11/09 04:46:06;;;;;;;5.28;4.85;;;11.10;99.90;;;;;;6143049;29;20275;-67
2022/11/09 04:49:11;;;;;;;8.73;5.32;;;11.20;99.90;;;;;;6142263;29;20299;-67
2022/11/09 04:52:16;;;;;;;7.30;5.30;;;11.20;99.90;;;;;;6123342;29;20470;-67
2022/11/09 04:55:21;;;;;;;7.95;5.55;;;11.20;99.90;;;;;;6118874;29;20272;-67
2022/11/09 04:58:27;;;;;;;13.82;5.35;;;11.20;99.90;;;;;;6118554;29;20295;-67
2022/11/09 05:01:33;;;;;;;6.32;5.30;;;11.20;99.90;;;;;;6118778;29;20279;-68
2022/11/09 05:04:38;;;;;;;9.63;5.05;;;11.20;99.90;;;;;;6118396;29;20598;-67
2022/11/09 05:07:43;;;;;;;6.15;5.00;;;11.30;99.90;;;;;;6117999;29;20312;-68
2022/11/09 05:10:48;;;;;;;11.00;5.30;;;11.30;99.90;;;;;;6129092;29;20272;-66
2022/11/09 05:13:54;;;;;;;6.15;5.53;;;11.30;99.90;;;;;;6141655;29;20307;-66
2022/11/09 05:17:00;;;;;;;5.75;5.13;;;11.30;99.90;;;;;;6124329;29;20271;-68
2022/11/09 05:20:06;;;;;;;5.85;5.20;;;11.30;99.90;;;;;;6142290;29;20267;-66
2022/11/09 05:26:36;;;;;;;6.50;4.93;;;11.30;99.90;;;;;;6122229;29;20534;-68
2022/11/09 05:29:42;;;;;;;7.68;5.20;;;11.30;99.90;;;;;;6141409;29;20299;-66
2022/11/09 05:32:47;;;;;;;10.98;4.82;;;11.30;99.90;;;;;;6140085;29;20300;-66
2022/11/09 05:35:54;;;;;;;9.77;5.20;;;11.30;99.90;;;;;;6141835;29;20271;-67
2022/11/09 05:38:59;;;;;;;8.02;5.40;;;11.40;99.90;;;;;;6141161;29;20307;-67
2022/11/09 05:42:04;;;;;;;7.72;5.20;;;11.30;99.90;;;;;;6140656;29;20275;-67
2022/11/09 05:45:15;;;;;;;8.52;5.43;;;11.40;99.90;;;;;;6141280;29;20267;-66
2022/11/09 05:48:40;;;;;;;6.60;5.45;;;11.40;99.90;;;;;;6141023;29;20299;-67
2022/11/09 05:51:45;;;;;;;8.07;4.90;;;11.30;99.90;;;;;;6141654;29;20287;-67
2022/11/09 05:54:59;;;;;;;12.95;5.15;;;11.40;99.90;;;;;;6307816;27;20569;-66
2022/11/09 05:58:05;;;;;;;5.00;4.43;;;11.50;99.90;;;;;;6291343;28;20286;-67
2022/11/09 06:01:14;;;;;;;5.60;5.05;;;11.50;99.90;;;;;;6307791;28;20274;-67
2022/11/09 06:04:20;;;;;;;7.30;5.20;;;11.50;99.90;;;;;;6306292;28;20286;-67
2022/11/09 06:07:25;;;;;;;8.10;4.57;;;11.50;99.90;;;;;;6303739;28;20295;-67
2022/11/09 06:10:31;;;;;;;5.90;5.22;;;11.50;99.90;;;;;;6282698;28;20571;-67
2022/11/09 06:13:36;;;;;;;5.13;4.60;;;11.50;99.90;;;;;;6295469;28;20494;-67
2022/11/09 06:16:41;;;;;;;6.55;5.32;;;11.50;99.90;;;;;;6307551;28;20262;-67
2022/11/09 06:19:46;;;;;;;7.93;5.38;;;11.50;99.90;;;;;;6283855;28;20294;-67
2022/11/09 06:22:54;;;;;;;9.45;5.00;;;11.40;99.90;;;;;;6288678;28;20290;-67
2022/11/09 06:26:10;;;;;;;8.32;4.30;;;11.40;99.90;;;;;;6306631;28;20431;-67
2022/11/09 06:29:15;;;;;;;10.25;5.20;;;11.40;99.90;;;;;;6306578;28;20296;-66
2022/11/09 06:32:20;;;;;;;11.25;5.07;;;11.40;99.90;;;;;;6306272;28;20302;-68
2022/11/09 06:35:25;;;;;;;7.68;4.88;;;11.40;99.90;;;;;;6307066;28;20263;-67
2022/11/09 06:38:30;;;;;;;8.52;5.28;;;11.30;99.90;;;;;;6306649;28;20291;-68
2022/11/09 06:41:36;;;;;;;10.60;4.93;;;11.30;99.90;;;;;;6306800;28;20267;-68
2022/11/09 06:44:41;;;;;;;6.85;4.60;;;11.30;99.90;;;;;;6306042;28;20290;-67
2022/11/09 06:47:46;;;;;;;8.32;4.70;;;11.30;99.90;;;;;;6306142;28;20310;-67
2022/11/09 06:50:50;;;;;;;6.78;4.80;;;11.20;99.90;;;;;;6306610;28;20270;-67
2022/11/09 06:53:55;;;;;;;8.05;5.32;;;11.20;99.90;;;;;;6305579;28;20605;-66
2022/11/09 06:57:01;;;;;;;9.65;5.15;;;11.10;99.90;;;;;;6321524;28;20262;-66
2022/11/09 07:00:09;;;;;;;9.05;4.72;;;11.10;99.90;;;;;;6282449;28;20263;-67
2022/11/09 07:03:18;;;;;;;8.05;4.65;;;11.10;99.90;;;;;;6292232;28;20290;-67
2022/11/09 07:06:24;;;;;;;6.30;4.88;;;11.10;99.90;;;;;;6288440;28;20268;-67
2022/11/09 07:09:29;;;;;;;5.35;4.63;;;11.10;99.90;;;;;;6289173;28;20590;-69
2022/11/09 07:12:35;;;;;;;5.82;4.78;;;11.10;99.90;;;;;;6288657;28;20291;-66
2022/11/09 07:15:40;;;;;;;8.07;4.93;;;11.10;99.90;;;;;;6289471;28;20590;-68
2022/11/09 07:18:45;;;;;;;7.35;4.72;;;11.00;99.90;;;;;;6288931;28;20307;-66
2022/11/09 07:21:50;;;;;;;11.23;4.75;;;11.10;99.90;;;;;;6288888;28;20272;-67
2022/11/09 07:24:55;;;;;;;6.68;4.95;;;11.10;99.90;;;;;;6288639;28;20306;-67
2022/11/09 07:28:06;;;;;;;5.70;5.15;;;11.10;99.90;;;;;;6288805;28;20615;-67
2022/11/09 07:31:13;;;;;;;7.35;4.82;;;11.10;99.90;;;;;;6289392;28;20267;-66
2022/11/09 07:34:19;;;;;;;8.07;4.78;;;11.10;99.90;;;;;;6288326;28;20298;-66
2022/11/09 07:37:23;;;;;;;7.93;4.55;;;11.10;99.90;;;;;;6288956;28;20286;-67
2022/11/09 07:40:28;;;;;;;8.55;4.85;;;11.10;99.90;;;;;;6288808;28;20267;-67
2022/11/09 07:43:35;;;;;;;6.25;4.63;;;11.10;99.90;;;;;;6288192;28;20303;-66
2022/11/09 07:46:40;;;;;;;11.88;4.43;;;11.10;99.90;;;;;;6304183;28;20268;-66
2022/11/09 07:49:45;;;;;;;7.30;4.30;;;11.20;99.90;;;;;;6288589;28;20310;-67
2022/11/09 07:52:50;;;;;;;5.57;4.15;;;11.20;99.90;;;;;;6287332;28;20299;-66
2022/11/09 07:55:59;;;;;;;9.80;4.20;;;11.20;99.90;;;;;;6288524;28;20466;-67
2022/11/09 07:59:05;;;;;;;5.22;4.45;;;11.20;99.90;;;;;;6288233;28;20295;-67
2022/11/09 08:02:10;;;;;;;7.03;4.80;;;11.10;99.90;;;;;;6288367;28;20287;-66
2022/11/09 08:05:16;;;;;;;4.93;4.18;;;11.20;99.90;;;;;;6288349;28;20276;-66
2022/11/09 08:08:21;;;;;;;7.28;4.30;;;11.20;99.90;;;;;;6287685;28;20457;-67
2022/11/09 08:11:27;;;;;;;4.43;4.13;;;11.30;99.90;;;;;;6288576;28;20263;-67
2022/11/09 08:14:33;;;;;;;10.95;4.05;;;11.40;99.90;;;;;;6287779;28;20295;-67
2022/11/09 08:17:38;;;;;;;7.47;4.10;;;11.40;99.90;;;;;;6286354;28;20287;-67
2022/11/09 08:20:43;;;;;;;5.20;4.40;;;11.40;99.90;;;;;;6288208;28;20263;-67
2022/11/09 08:23:49;;;;;;;7.07;4.03;;;11.30;99.90;;;;;;6287049;28;20298;-67
2022/11/09 08:26:54;;;;;;;5.03;4.38;;;11.30;99.90;;;;;;6287521;28;20268;-66
2022/11/09 08:30:00;;;;;;;12.85;4.72;;;11.30;99.90;;;;;;6286561;28;20287;-66
2022/11/09 08:33:06;;;;;;;9.60;4.75;;;11.20;99.90;;;;;;6293063;28;20293;-66
2022/11/09 08:36:14;;;;;;;9.23;4.93;;;11.20;99.90;;;;;;6262671;28;20288;-67
2022/11/09 08:39:18;;;;;;;7.28;4.25;;;11.30;99.90;;;;;;6281494;28;20295;-67
2022/11/09 08:42:23;;;;;;;6.03;4.43;;;11.30;99.90;;;;;;6283108;28;20291;-67
2022/11/09 08:45:32;;;;;;;6.90;4.50;;;11.40;99.90;;;;;;6262174;28;20267;-67
2022/11/09 08:48:37;;;;;;;9.77;5.25;;;11.40;99.90;;;;;;6274458;28;20299;-67
2022/11/09 08:51:42;;;;;;;9.88;5.57;;;11.40;99.90;;;;;;6287429;28;20266;-67
2022/11/09 08:54:46;;;;;;;6.07;4.72;;;11.50;99.90;;;;;;6263445;28;20308;-67
2022/11/09 08:57:56;;;;;;;7.47;4.70;;;11.40;99.90;;;;;;6269282;28;20287;-66
2022/11/09 09:01:06;;;;;;;9.85;4.70;;;11.40;99.90;;;;;;6286501;28;20271;-66
2022/11/09 09:04:15;;;;;;;5.80;4.30;;;11.40;99.90;;;;;;6267643;28;20315;-67
2022/11/09 09:07:20;;;;;;;6.82;4.57;;;11.50;99.90;;;;;;6264767;28;20295;-66
2022/11/09 09:10:25;;;;;;;8.32;4.53;;;11.50;99.90;;;;;;6286490;28;20263;-66
2022/11/09 09:13:30;;;;;;;11.27;4.60;;;11.60;99.90;;;;;;6286404;28;20594;-66
2022/11/09 09:16:37;;;;;;;6.82;4.78;;;11.60;99.90;;;;;;6284848;28;20291;-66
2022/11/09 09:19:42;;;;;;;6.93;4.93;;;11.60;99.90;;;;;;6286450;28;20290;-66
2022/11/09 09:22:53;;;;;;;8.05;4.95;;;11.70;99.90;;;;;;6286260;28;20295;-67
2022/11/09 09:25:58;;;;;;;10.07;4.90;;;11.70;99.90;;;;;;6286583;28;20271;-68
2022/11/09 09:29:03;;;;;;;7.25;4.53;;;11.60;99.90;;;;;;6285964;28;20470;-68
2022/11/09 09:32:09;;;;;;;5.22;4.60;;;11.70;99.90;;;;;;6285822;28;20571;-66
2022/11/09 09:35:14;;;;;;;7.80;4.50;;;11.70;99.90;;;;;;6286163;28;20470;-67
2022/11/09 09:38:19;;;;;;;7.65;5.13;;;11.70;99.90;;;;;;6285871;28;20294;-66
2022/11/09 09:41:31;;;;;;;6.88;4.47;;;11.70;99.90;;;;;;6286455;28;20262;-66
2022/11/09 09:44:43;;;;;;;8.52;5.68;;;11.70;99.90;;;;;;6285619;28;20299;-66
2022/11/09 09:47:54;;;;;;;7.85;5.07;;;11.70;99.90;;;;;;6286121;28;20315;-66
2022/11/09 09:51:04;;;;;;;5.97;5.40;;;11.60;99.90;;;;;;6285687;28;20271;-66
2022/11/09 09:54:16;;;;;;;5.30;4.60;;;11.60;99.90;;;;;;6285485;28;20295;-66
2022/11/09 09:57:22;;;;;;;5.70;4.57;;;11.70;99.90;;;;;;6285946;28;20291;-67
2022/11/09 10:00:28;;;;;;;11.88;5.05;;;11.80;99.90;;;;;;6286538;28;20272;-67
2022/11/09 10:03:34;;;;;;;11.55;4.30;;;11.90;99.90;;;;;;6285687;28;20480;-66
2022/11/09 10:06:57;;;;;;;14.23;4.80;;;11.90;99.90;;;;;;6286471;28;20266;-66
2022/11/09 10:10:34;;;;;;;7.30;4.45;;;11.90;99.90;;;;;;6284918;28;20433;-66
2022/11/09 10:14:01;;;;;;;4.90;4.35;;;12.00;99.90;;;;;;6271410;28;20287;-67
2022/11/09 10:17:14;;;;;;;4.45;4.05;;;12.00;99.90;;;;;;6261513;28;20291;-67
2022/11/09 10:20:48;;;;;;;5.35;4.10;;;12.00;99.90;;;;;;6317427;28;20271;-66
2022/11/09 10:24:12;;;;;;;6.45;4.13;;;12.00;99.90;;;;;;6285184;28;20473;-66
2022/11/09 10:27:27;;;;;;;9.38;4.10;;;12.10;99.90;;;;;;6284544;28;20271;-66
2022/11/09 10:30:32;;;;;;;10.30;3.90;;;12.10;99.90;;;;;;6285627;28;20267;-67
2022/11/09 10:33:37;;;;;;;5.75;4.18;;;12.10;99.90;;;;;;6285150;28;20303;-68
2022/11/09 10:36:47;;;;;;;6.85;3.90;;;12.10;99.90;;;;;;6284932;28;20287;-66
2022/11/09 10:39:58;;;;;;;4.63;4.10;;;12.20;99.90;;;;;;6286344;28;20302;-66
2022/11/09 10:43:21;;;;;;;9.13;4.80;;;12.20;99.90;;;;;;6278369;28;20489;-67
2022/11/09 10:47:06;;;;;;;7.20;4.40;;;12.10;99.90;;;;;;6265640;28;20272;-67
2022/11/09 10:50:34;;;;;;;6.95;4.22;;;12.20;99.90;;;;;;6264172;28;20444;-66
2022/11/09 10:54:16;;;;;;;5.43;4.10;;;12.20;99.90;;;;;;6280778;28;20295;-66
2022/11/09 10:57:54;;;;;;;9.82;4.68;;;12.30;99.90;;;;;;6289903;28;20571;-67
2022/11/09 11:01:20;;;;;;;8.60;4.68;;;12.40;99.90;;;;;;6290225;28;20263;-67
2022/11/09 11:04:45;;;;;;;5.07;4.53;;;12.40;99.90;;;;;;6266628;28;20287;-66
2022/11/09 11:08:30;;;;;;;9.63;4.30;;;12.40;99.90;;;;;;6274217;28;20307;-66
2022/11/09 11:12:15;;;;;;;6.47;4.00;;;12.40;99.90;;;;;;6289390;28;20459;-67
2022/11/09 11:15:40;;;;;;;5.03;4.18;;;12.40;99.90;;;;;;6288230;28;20467;-68
2022/11/09 11:19:04;;;;;;;8.40;5.15;;;12.40;99.90;;;;;;6289218;28;20594;-67
2022/11/09 11:22:28;;;;;;;7.97;4.45;;;12.50;99.90;;;;;;6289102;28;20287;-67
2022/11/09 11:26:26;;;;;;;9.18;5.15;;;12.50;99.90;;;;;;6289089;28;20271;-66
2022/11/09 11:30:01;;;;;;;5.53;4.15;;;12.50;99.90;;;;;;6288914;28;20478;-66
2022/11/09 11:33:25;;;;;;;6.13;4.00;;;12.50;99.90;;;;;;6288788;28;20311;-67
2022/11/09 11:37:02;;;;;;;7.10;3.70;;;12.50;99.90;;;;;;6288786;28;20292;-67
2022/11/09 11:40:30;;;;;;;10.73;4.28;;;12.60;99.90;;;;;;6288037;28;20271;-67
2022/11/09 11:43:58;;;;;;;6.80;4.03;;;12.50;99.90;;;;;;6288225;28;20614;-66
2022/11/09 11:47:28;;;;;;;6.32;4.05;;;12.60;99.90;;;;;;6287895;28;20290;-68
2022/11/09 11:50:57;;;;;;;4.47;3.40;;;12.50;99.90;;;;;;6288126;28;20271;-68
2022/11/09 11:54:27;;;;;;;5.70;3.30;;;12.60;99.90;;;;;;6287775;28;20306;-67
2022/11/09 11:58:18;;;;;;;3.47;3.15;;;12.60;99.90;;;;;;6287861;28;20602;-67
2022/11/09 12:02:03;;;;;;;3.55;3.38;;;12.60;99.90;;;;;;6287959;28;20288;-66
2022/11/09 12:05:58;;;;;;;5.75;3.50;;;12.60;99.90;;;;;;6287284;28;20271;-66
2022/11/09 12:09:49;;;;;;;4.88;2.92;;;12.60;99.90;;;;;;6285764;28;20320;-66
2022/11/09 12:13:31;;;;;;;4.57;3.38;;;12.60;99.90;;;;;;6263048;28;20296;-67
2022/11/09 12:17:05;;;;;;;3.47;3.17;;;12.50;99.90;;;;;;6263198;28;20303;-66
2022/11/09 12:20:35;;;;;;;7.38;3.10;;;12.50;99.90;;;;;;6261680;28;20276;-68
2022/11/09 12:24:16;;;;;;;3.38;3.08;;;12.50;99.90;;;;;;6262671;28;20292;-68
2022/11/09 12:28:02;;;;;;;4.75;3.13;;;12.50;99.90;;;;;;6263154;28;20291;-68
2022/11/09 12:31:35;;;;;;;3.20;2.90;;;12.40;99.90;;;;;;6263432;28;20268;-67
2022/11/09 12:35:16;;;;;;;6.80;3.40;;;12.40;99.90;;;;;;6262528;28;20458;-65
2022/11/09 12:38:53;;;;;;;3.33;3.00;;;12.30;99.90;;;;;;6262883;28;20308;-66
2022/11/09 12:42:23;;;;;;;6.15;3.22;;;12.40;99.90;;;;;;6262695;28;20272;-67
2022/11/09 12:45:47;;;;;;;4.07;3.22;;;12.30;99.90;;;;;;6263209;28;20263;-66
2022/11/09 12:49:30;;;;;;;5.60;3.10;;;12.30;99.90;;;;;;6244509;28;20296;-67
2022/11/09 12:52:54;;;;;;;3.47;3.03;;;12.30;99.90;;;;;;6237179;28;20320;-68
2022/11/09 12:56:22;;;;;;;3.53;3.17;;;12.30;99.90;;;;;;6237993;28;20265;-68
2022/11/09 12:59:49;;;;;;;4.28;2.88;;;12.30;99.90;;;;;;6237413;28;20315;-67
2022/11/09 13:03:25;;;;;;;7.53;3.83;;;12.40;99.90;;;;;;6236938;28;20296;-67
2022/11/09 13:07:42;;;;;;;5.75;3.35;;;12.40;99.90;;;;;;6237418;28;20274;-66
2022/11/09 13:11:17;;;;;;;3.05;2.88;;;12.40;99.90;;;;;;6247778;28;20302;-67
2022/11/09 13:14:42;;;;;;;2.80;2.70;;;12.40;99.90;;;;;;6283922;28;20291;-66
2022/11/09 13:18:24;;;;;;;3.83;3.10;;;12.30;99.90;;;;;;6286058;28;20315;-66
2022/11/09 13:21:47;;;;;;;8.88;3.13;;;12.20;99.90;;;;;;6286963;28;20272;-67
2022/11/09 13:25:50;;;;;;;3.35;3.05;;;12.20;99.90;;;;;;6285518;28;20275;-67
2022/11/09 13:29:26;;;;;;;5.53;3.38;;;12.20;99.90;;;;;;6267742;28;20300;-67
2022/11/09 13:33:23;;;;;;;5.60;3.17;;;12.10;99.90;;;;;;6268483;28;20295;-68
2022/11/09 13:37:48;;;;;;;3.72;3.30;;;12.10;99.90;;;;;;6286260;28;20295;-66
2022/11/09 13:41:41;;;;;;;6.20;3.58;;;12.10;99.90;;;;;;6285380;28;20274;-66
2022/11/09 13:45:29;;;;;;;8.70;4.32;;;12.10;99.90;;;;;;6285297;28;20270;-67
2022/11/09 13:48:54;;;;;;;6.57;3.40;;;12.10;99.90;;;;;;6286007;28;20387;-67
2022/11/09 13:52:47;;;;;;;5.75;3.25;;;12.00;99.90;;;;;;6292822;28;20269;-67
2022/11/09 13:56:19;;;;;;;7.88;3.53;;;12.10;99.90;;;;;;6335442;28;20436;-66
2022/11/09 13:59:50;;;;;;;5.82;3.92;;;12.00;99.90;;;;;;6335244;28;20293;-66
2022/11/09 14:03:22;;;;;;;4.75;3.50;;;11.90;99.90;;;;;;6335197;28;20286;-66
2022/11/09 14:06:47;;;;;;;6.40;4.10;;;11.90;99.90;;;;;;6335244;28;20266;-67
2022/11/09 14:10:28;;;;;;;8.98;4.20;;;11.90;99.90;;;;;;6334578;28;20278;-67
2022/11/09 14:14:11;;;;;;;13.82;3.83;;;11.90;99.90;;;;;;6335229;28;20577;-67
2022/11/09 14:17:43;;;;;;;6.72;3.75;;;11.90;99.90;;;;;;6339991;28;20586;-67
2022/11/09 14:21:31;;;;;;;4.68;3.63;;;11.90;99.90;;;;;;6340707;28;20266;-67
2022/11/09 14:24:56;;;;;;;4.75;3.35;;;11.90;99.90;;;;;;6340028;28;20289;-67
2022/11/09 14:28:22;;;;;;;4.45;3.72;;;11.80;99.90;;;;;;6339699;28;20298;-67
2022/11/09 14:31:46;;;;;;;4.72;3.72;;;11.90;99.90;;;;;;6340348;28;20550;-67
2022/11/09 14:35:26;;;;;;;7.57;3.78;;;11.80;99.90;;;;;;6339777;28;20274;-67
2022/11/09 14:38:49;;;;;;;5.68;3.70;;;11.80;99.90;;;;;;6339529;28;20302;-67
2022/11/09 14:42:20;;;;;;;5.82;4.05;;;11.70;99.90;;;;;;6339340;28;20465;-67
2022/11/09 14:45:49;;;;;;;5.43;3.42;;;11.70;99.90;;;;;;6339913;28;20265;-67
2022/11/09 14:49:13;;;;;;;5.20;3.38;;;11.70;99.90;;;;;;6339517;28;20293;-67
2022/11/09 14:52:37;;;;;;;3.30;3.08;;;11.60;99.90;;;;;;6338819;28;20289;-67
2022/11/09 14:56:03;;;;;;;7.43;3.30;;;11.60;99.90;;;;;;6339655;28;20290;-66
2022/11/09 14:59:32;;;;;;;6.22;3.75;;;11.60;99.90;;;;;;6339143;28;20302;-66
2022/11/09 15:02:56;;;;;;;9.90;3.80;;;11.60;99.90;;;;;;6339158;28;20565;-67
2022/11/09 15:06:20;;;;;;;8.07;3.28;;;11.50;99.90;;;;;;6339243;28;20265;-67
2022/11/09 15:09:47;;;;;;;3.47;3.17;;;11.40;99.90;;;;;;6338852;28;20301;-67
2022/11/09 15:13:12;;;;;;;4.32;3.03;;;11.40;99.90;;;;;;6339088;28;20297;-68
2022/11/09 15:16:37;;;;;;;5.30;3.17;;;11.40;99.90;;;;;;6339154;28;20270;-67
2022/11/09 15:20:04;;;;;;;4.55;3.00;;;11.40;99.90;;;;;;6338223;28;20286;-66
2022/11/09 15:23:38;;;;;;;4.10;3.10;;;11.30;99.90;;;;;;6338631;28;20443;-66
2022/11/09 15:27:02;;;;;;;10.05;3.35;;;11.30;99.90;;;;;;6337668;28;20262;-66
2022/11/09 15:30:34;;;;;;;3.70;2.90;;;11.20;99.90;;;;;;6338705;28;20282;-66
2022/11/09 15:33:59;;;;;;;6.47;3.28;;;11.20;99.90;;;;;;6338559;28;20290;-67
2022/11/09 15:37:28;;;;;;;5.90;3.03;;;11.10;99.90;;;;;;6338435;28;20294;-66
2022/11/09 15:40:51;;;;;;;3.88;3.15;;;11.10;99.90;;;;;;6338788;28;20261;-66
2022/11/09 15:44:15;;;;;;;3.60;3.28;;;11.00;99.90;;;;;;6338358;28;20298;-66
2022/11/09 15:47:39;;;;;;;3.10;2.90;;;11.00;99.90;;;;;;6338423;28;20282;-66
2022/11/09 15:51:04;;;;;;;3.80;2.97;;;11.00;99.90;;;;;;6338055;28;20267;-66
2022/11/09 15:54:28;;;;;;;3.13;2.92;;;11.00;99.90;;;;;;6337752;28;20298;-67
2022/11/09 15:57:52;;;;;;;7.22;3.10;;;10.90;99.90;;;;;;6337382;28;20285;-67
2022/11/09 16:01:16;;;;;;;5.90;3.10;;;10.90;99.90;;;;;;6338401;28;20456;-67
2022/11/09 16:04:40;;;;;;;6.43;3.97;;;10.90;99.90;;;;;;6337635;28;20289;-65
2022/11/09 16:08:07;;;;;;;3.85;3.45;;;10.90;99.90;;;;;;6337463;28;20286;-66
2022/11/09 16:11:30;;;;;;;3.60;3.30;;;10.90;99.90;;;;;;6338082;28;20266;-66
2022/11/09 16:14:53;;;;;;;3.30;3.00;;;10.90;99.90;;;;;;6337407;28;20293;-66
2022/11/09 16:18:17;;;;;;;7.25;2.85;;;10.90;99.90;;;;;;6337365;28;20297;-67
2022/11/09 16:21:48;;;;;;;5.68;3.38;;;10.80;99.90;;;;;;6337707;28;20266;-67
2022/11/09 16:25:13;;;;;;;5.70;3.33;;;10.90;99.90;;;;;;6336733;28;20294;-68
2022/11/09 16:28:38;;;;;;;3.40;3.20;;;10.80;99.90;;;;;;6336968;28;20306;-66
2022/11/09 16:32:02;;;;;;;4.43;3.17;;;10.80;99.90;;;;;;6337120;28;20271;-67
2022/11/09 16:35:26;;;;;;;4.82;3.20;;;10.70;99.90;;;;;;6337455;28;20270;-66
2022/11/09 16:38:53;;;;;;;6.68;2.97;;;10.70;99.90;;;;;;6336005;28;20294;-67
2022/11/09 16:42:19;;;;;;;4.78;3.15;;;10.70;99.90;;;;;;6336531;28;20261;-67
2022/11/09 16:45:46;;;;;;;8.15;3.08;;;10.80;99.90;;;;;;6336850;28;20269;-67
2022/11/09 16:49:10;;;;;;;3.85;3.40;;;10.80;99.90;;;;;;6336514;28;20314;-67
2022/11/09 16:52:33;;;;;;;3.72;3.13;;;10.70;99.90;;;;;;6335905;28;20305;-67
2022/11/09 16:55:56;;;;;;;5.50;3.40;;;10.70;99.90;;;;;;6336668;28;20266;-66
2022/11/09 16:59:23;;;;;;;5.65;3.38;;;10.60;99.90;;;;;;6335871;28;20367;-67
2022/11/09 17:02:47;;;;;;;4.82;3.05;;;10.60;99.90;;;;;;6336477;28;20295;-67
2022/11/09 17:06:12;;;;;;;10.63;3.40;;;10.70;99.90;;;;;;6336969;28;20265;-67